Time;durP1;ratioP1;P1;durP2;ratioP2;P2;SDS_P1;SDS_P2;PMS_P1;PMS_P2;Temp;Humidity;BMP_temperature;BMP_pressure;BME280_temperature;BME280_humidity;BME280_pressure;Samples;Min_cycle;Max_cycle;Signal;HPM_P1;HPM_P2
2023/11/03 00:01:02;;;;;;;4.90;1.23;;;10.50;99.90;;;;;;4126843;28;20471;-73
2023/11/03 00:03:06;;;;;;;7.25;1.23;;;10.50;99.90;;;;;;4128105;28;20034;-73
2023/11/03 00:05:12;;;;;;;6.82;1.33;;;10.50;99.90;;;;;;4123190;28;20399;-73
2023/11/03 00:07:14;;;;;;;3.20;1.00;;;10.50;99.90;;;;;;4123738;28;20108;-72
2023/11/03 00:09:15;;;;;;;3.53;0.82;;;10.50;99.90;;;;;;4127157;28;20125;-72
2023/11/03 00:11:16;;;;;;;3.20;1.23;;;10.50;99.90;;;;;;4126347;28;20056;-72
2023/11/03 00:13:16;;;;;;;2.33;0.90;;;10.50;99.90;;;;;;4128089;28;20391;-73
2023/11/03 00:15:17;;;;;;;4.93;1.08;;;10.50;99.90;;;;;;4130280;28;20489;-73
2023/11/03 00:17:17;;;;;;;3.55;1.02;;;10.50;99.90;;;;;;4127738;28;20038;-72
2023/11/03 00:19:18;;;;;;;2.85;0.90;;;10.50;99.90;;;;;;4126657;28;20181;-72
2023/11/03 00:21:20;;;;;;;3.53;1.00;;;10.60;99.90;;;;;;4126044;28;20085;-72
2023/11/03 00:23:22;;;;;;;5.97;1.50;;;10.60;99.90;;;;;;4123653;28;20467;-72
2023/11/03 00:25:23;;;;;;;;;;;10.50;99.90;;;;;;4109608;28;20070;-71
2023/11/03 00:27:25;;;;;;;3.03;0.65;;;10.50;99.90;;;;;;4123757;28;19910;-72
2023/11/03 00:29:25;;;;;;;2.05;1.05;;;10.60;99.90;;;;;;4127048;28;20406;-72
2023/11/03 00:31:26;;;;;;;3.05;0.88;;;10.50;99.90;;;;;;4126438;28;20049;-72
2023/11/03 00:33:27;;;;;;;3.78;0.88;;;10.60;99.90;;;;;;4127898;28;20479;-72
2023/11/03 00:35:28;;;;;;;2.08;0.68;;;10.60;99.90;;;;;;4109592;28;20039;-73
2023/11/03 00:37:29;;;;;;;3.38;0.70;;;10.60;99.90;;;;;;4108660;28;20146;-72
2023/11/03 00:39:29;;;;;;;3.50;0.70;;;10.60;99.90;;;;;;4126747;28;20688;-72
2023/11/03 00:41:31;;;;;;;1.50;0.60;;;10.60;99.90;;;;;;4125474;28;20042;-73
2023/11/03 00:43:32;;;;;;;2.42;0.70;;;10.60;99.90;;;;;;4126883;28;20069;-73
2023/11/03 00:45:33;;;;;;;2.67;0.95;;;10.60;99.90;;;;;;4126208;28;20030;-73
2023/11/03 00:47:33;;;;;;;2.00;0.55;;;10.60;99.90;;;;;;4125800;28;20510;-73
2023/11/03 00:49:37;;;;;;;2.35;0.90;;;10.60;99.90;;;;;;4126711;28;20394;-73
2023/11/03 00:51:38;;;;;;;2.28;0.50;;;10.60;99.90;;;;;;4125584;28;20403;-73
2023/11/03 00:53:38;;;;;;;2.63;0.70;;;10.70;99.90;;;;;;4126730;28;20129;-73
2023/11/03 00:55:40;;;;;;;1.25;0.55;;;10.70;99.90;;;;;;4125290;28;20022;-73
2023/11/03 00:57:41;;;;;;;1.65;0.65;;;10.60;99.90;;;;;;4126210;28;20373;-72
2023/11/03 00:59:42;;;;;;;2.67;0.55;;;10.70;99.90;;;;;;4127019;28;20073;-73
2023/11/03 01:01:43;;;;;;;2.72;0.77;;;10.60;99.90;;;;;;4125431;28;20034;-73
2023/11/03 01:03:44;;;;;;;1.52;0.55;;;10.60;99.90;;;;;;4126876;28;20081;-73
2023/11/03 01:05:44;;;;;;;4.35;1.10;;;10.60;99.90;;;;;;4119870;28;20035;-73
2023/11/03 01:07:45;;;;;;;3.88;1.00;;;10.60;99.90;;;;;;4118162;28;20501;-73
2023/11/03 01:09:46;;;;;;;2.13;0.55;;;10.70;99.90;;;;;;4123996;28;20034;-73
2023/11/03 01:11:47;;;;;;;3.45;0.98;;;10.60;99.90;;;;;;4117320;28;20043;-73
2023/11/03 01:13:48;;;;;;;3.25;0.93;;;10.60;99.90;;;;;;4125823;28;20483;-73
2023/11/03 01:15:51;;;;;;;1.45;0.60;;;10.60;99.90;;;;;;4125548;28;20037;-72
2023/11/03 01:17:52;;;;;;;1.92;0.60;;;10.60;99.90;;;;;;4125672;28;20050;-73
2023/11/03 01:19:53;;;;;;;3.42;0.90;;;10.70;99.90;;;;;;4127261;28;20077;-73
2023/11/03 01:21:54;;;;;;;3.35;1.08;;;10.70;99.90;;;;;;4125662;28;20030;-73
2023/11/03 01:23:55;;;;;;;1.70;0.90;;;10.70;99.90;;;;;;4127867;28;20034;-74
2023/11/03 01:25:56;;;;;;;4.03;0.70;;;10.70;99.90;;;;;;4125323;28;20062;-74
2023/11/03 01:27:56;;;;;;;2.35;0.63;;;10.70;99.90;;;;;;4108842;28;20050;-74
2023/11/03 01:29:57;;;;;;;4.90;1.40;;;10.70;99.90;;;;;;4127422;28;20129;-74
2023/11/03 01:31:58;;;;;;;3.03;0.68;;;10.60;99.90;;;;;;4125199;28;20046;-75
2023/11/03 01:33:59;;;;;;;2.05;0.60;;;10.60;99.90;;;;;;4126197;28;20030;-74
2023/11/03 01:36:04;;;;;;;2.55;0.65;;;10.60;99.90;;;;;;4125235;28;20057;-74
2023/11/03 01:38:04;;;;;;;3.75;1.02;;;10.60;99.90;;;;;;4130470;28;20398;-74
2023/11/03 01:40:08;;;;;;;1.90;0.63;;;10.60;99.90;;;;;;4113668;28;20031;-75
2023/11/03 01:42:09;;;;;;;4.60;0.80;;;10.60;99.90;;;;;;4127010;28;20049;-75
2023/11/03 01:44:11;;;;;;;3.88;1.17;;;10.60;99.90;;;;;;4126605;28;20121;-75
2023/11/03 01:46:12;;;;;;;;;;;10.60;99.90;;;;;;4116060;28;20038;-75
2023/11/03 01:48:13;;;;;;;3.55;1.00;;;10.60;99.90;;;;;;4120451;28;20321;-75
2023/11/03 01:50:15;;;;;;;2.30;0.88;;;10.60;99.90;;;;;;4129892;28;20029;-75
2023/11/03 01:52:16;;;;;;;3.67;0.98;;;10.70;99.90;;;;;;4124896;28;20402;-75
2023/11/03 01:54:17;;;;;;;4.38;1.13;;;10.70;99.90;;;;;;4126757;28;20121;-75
2023/11/03 01:56:17;;;;;;;4.05;0.95;;;10.70;99.90;;;;;;4125495;28;20125;-75
2023/11/03 01:58:18;;;;;;;3.17;0.80;;;10.70;99.90;;;;;;4131502;28;20046;-75
2023/11/03 02:00:20;;;;;;;4.60;1.02;;;10.70;99.90;;;;;;4130888;28;20030;-73
2023/11/03 02:02:22;;;;;;;4.35;1.00;;;10.70;99.90;;;;;;4130427;28;20038;-74
2023/11/03 02:04:24;;;;;;;2.47;0.95;;;10.70;99.90;;;;;;4120449;28;20035;-74
2023/11/03 02:06:25;;;;;;;4.25;1.10;;;10.70;99.90;;;;;;4107296;28;20034;-74
2023/11/03 02:08:26;;;;;;;2.65;0.88;;;10.70;99.90;;;;;;4133382;28;20156;-73
2023/11/03 02:10:26;;;;;;;2.90;0.88;;;10.70;99.90;;;;;;4125694;28;20526;-74
2023/11/03 02:12:27;;;;;;;4.68;1.10;;;10.70;99.90;;;;;;4125663;28;20074;-74
2023/11/03 02:14:28;;;;;;;2.08;0.70;;;10.70;99.90;;;;;;4130784;28;20031;-74
2023/11/03 02:16:29;;;;;;;2.60;0.77;;;10.70;99.90;;;;;;4127026;28;20398;-74
2023/11/03 02:18:30;;;;;;;1.95;0.80;;;10.70;99.90;;;;;;4126909;28;20049;-74
2023/11/03 02:20:31;;;;;;;2.63;0.75;;;10.70;99.90;;;;;;4121243;28;20438;-74
2023/11/03 02:22:32;;;;;;;4.55;0.95;;;10.70;99.90;;;;;;4128823;28;20037;-75
2023/11/03 02:24:32;;;;;;;1.30;0.73;;;10.70;99.90;;;;;;4126148;28;20367;-74
2023/11/03 02:26:34;;;;;;;4.65;0.70;;;10.60;99.90;;;;;;4124879;28;20070;-83
2023/11/03 02:28:34;;;;;;;1.42;0.75;;;10.60;99.90;;;;;;4135056;28;20030;-84
2023/11/03 02:30:35;;;;;;;1.80;0.80;;;10.60;99.90;;;;;;4124350;28;20080;-83
2023/11/03 02:32:35;;;;;;;1.08;0.65;;;10.60;99.90;;;;;;4126018;28;20092;-83
2023/11/03 02:34:36;;;;;;;1.98;0.68;;;10.60;99.90;;;;;;4126330;28;20045;-82
2023/11/03 02:36:37;;;;;;;2.40;0.63;;;10.60;99.90;;;;;;4124435;28;20045;-83
2023/11/03 02:38:37;;;;;;;3.97;0.90;;;10.70;99.90;;;;;;4122897;28;20030;-83
2023/11/03 02:40:38;;;;;;;1.40;0.70;;;10.70;99.90;;;;;;4123871;28;20580;-83
2023/11/03 02:42:38;;;;;;;2.33;0.63;;;10.70;99.90;;;;;;4126839;28;20116;-84
2023/11/03 02:44:39;;;;;;;2.47;0.73;;;10.70;99.90;;;;;;4125986;28;20042;-83
2023/11/03 02:46:44;;;;;;;2.70;0.70;;;10.70;99.90;;;;;;4124893;28;20030;-83
2023/11/03 02:48:44;;;;;;;3.25;0.60;;;10.70;99.90;;;;;;4126161;28;20070;-83
2023/11/03 02:50:45;;;;;;;1.90;0.60;;;10.60;99.90;;;;;;4123991;28;20494;-83
2023/11/03 02:52:45;;;;;;;4.20;0.82;;;10.60;99.90;;;;;;4125586;28;20042;-83
2023/11/03 02:54:46;;;;;;;2.50;0.90;;;10.60;99.90;;;;;;4108590;28;20094;-83
2023/11/03 02:56:46;;;;;;;2.92;0.75;;;10.70;99.90;;;;;;4124695;28;20044;-83
2023/11/03 02:58:47;;;;;;;2.13;0.73;;;10.70;99.90;;;;;;4125737;28;20043;-83
2023/11/03 03:00:47;;;;;;;2.35;0.60;;;10.70;99.90;;;;;;4122353;28;20065;-83
2023/11/03 03:02:48;;;;;;;4.20;0.82;;;10.70;99.90;;;;;;4126246;28;20045;-83
2023/11/03 03:04:49;;;;;;;3.88;0.82;;;10.70;99.90;;;;;;4126408;28;20126;-83
2023/11/03 03:06:49;;;;;;;1.92;0.60;;;10.70;99.90;;;;;;4123953;28;20479;-81
2023/11/03 03:08:50;;;;;;;2.53;0.63;;;10.70;99.90;;;;;;4125913;28;20035;-81
2023/11/03 03:10:51;;;;;;;1.50;0.65;;;10.70;99.90;;;;;;4126040;28;20038;-83
2023/11/03 03:12:51;;;;;;;3.17;1.20;;;10.70;99.90;;;;;;4112514;28;20062;-83
2023/11/03 03:14:52;;;;;;;2.00;0.70;;;10.70;99.90;;;;;;4130127;28;20042;-82
2023/11/03 03:16:52;;;;;;;4.05;1.00;;;10.70;99.90;;;;;;4127234;28;20034;-83
2023/11/03 03:18:53;;;;;;;4.30;0.90;;;10.70;99.90;;;;;;4128958;28;20439;-82
2023/11/03 03:20:53;;;;;;;2.60;0.70;;;10.60;99.90;;;;;;4126562;28;20447;-79
2023/11/03 03:22:54;;;;;;;3.67;1.02;;;10.70;99.90;;;;;;4111261;28;20037;-81
2023/11/03 03:24:55;;;;;;;3.78;0.95;;;10.70;99.90;;;;;;4129530;28;20038;-82
2023/11/03 03:26:55;;;;;;;3.92;0.90;;;10.70;99.90;;;;;;4127120;28;20042;-81
2023/11/03 03:28:56;;;;;;;3.92;1.17;;;10.70;99.90;;;;;;4132672;28;20034;-82
2023/11/03 03:30:56;;;;;;;3.97;1.17;;;10.70;99.90;;;;;;4127076;28;20055;-81
2023/11/03 03:32:57;;;;;;;3.65;0.90;;;10.70;99.90;;;;;;4128776;28;20058;-81
2023/11/03 03:34:58;;;;;;;2.95;0.90;;;10.70;99.90;;;;;;4129112;28;20045;-82
2023/11/03 03:36:59;;;;;;;4.95;0.77;;;10.70;99.90;;;;;;4127150;28;20443;-64
2023/11/03 03:39:00;;;;;;;4.47;1.00;;;10.80;99.90;;;;;;4127768;28;20050;-64
2023/11/03 03:41:00;;;;;;;3.45;1.02;;;10.80;99.90;;;;;;4125866;28;20081;-67
2023/11/03 03:43:01;;;;;;;4.10;1.02;;;10.80;99.90;;;;;;4132281;28;20124;-64
2023/11/03 03:45:03;;;;;;;2.70;1.02;;;10.80;99.90;;;;;;4120895;28;20043;-64
2023/11/03 03:47:03;;;;;;;6.10;0.93;;;10.80;99.90;;;;;;4127137;28;20121;-64
2023/11/03 03:49:05;;;;;;;4.15;0.90;;;10.80;99.90;;;;;;4127718;28;20039;-64
2023/11/03 03:51:06;;;;;;;6.40;1.30;;;10.80;99.90;;;;;;4126485;28;20065;-64
2023/11/03 03:53:07;;;;;;;4.80;1.17;;;10.80;99.90;;;;;;4127127;28;20039;-64
2023/11/03 03:55:07;;;;;;;3.72;0.82;;;10.80;99.90;;;;;;4127267;28;20074;-65
2023/11/03 03:57:08;;;;;;;4.45;1.27;;;10.80;99.90;;;;;;4126556;28;20494;-64
2023/11/03 03:59:09;;;;;;;3.35;1.17;;;10.80;99.90;;;;;;4128103;28;20046;-64
2023/11/03 04:01:09;;;;;;;5.45;1.42;;;10.80;99.90;;;;;;4126681;28;20046;-64
2023/11/03 04:03:10;;;;;;;5.10;1.42;;;10.80;99.90;;;;;;4124172;28;20035;-64
2023/11/03 04:05:10;;;;;;;2.63;1.00;;;10.80;99.90;;;;;;4124403;28;20030;-65
2023/11/03 04:07:11;;;;;;;4.85;1.00;;;10.80;99.90;;;;;;4127038;28;20042;-64
2023/11/03 04:09:12;;;;;;;6.95;1.67;;;10.80;99.90;;;;;;4127427;28;20064;-64
2023/11/03 04:11:13;;;;;;;3.00;1.08;;;10.70;99.90;;;;;;4126030;28;20035;-64
2023/11/03 04:13:13;;;;;;;5.18;1.15;;;10.70;99.90;;;;;;4127312;28;20034;-65
2023/11/03 04:15:15;;;;;;;7.43;1.35;;;10.70;99.90;;;;;;4127100;28;20129;-64
2023/11/03 04:17:15;;;;;;;4.22;1.20;;;10.80;99.90;;;;;;4126813;28;20479;-64
2023/11/03 04:19:16;;;;;;;7.55;2.05;;;10.80;99.90;;;;;;4125965;28;20048;-64
2023/11/03 04:21:16;;;;;;;4.10;1.13;;;10.80;99.90;;;;;;4125861;28;20475;-64
2023/11/03 04:23:17;;;;;;;5.28;1.30;;;10.70;99.90;;;;;;4127363;28;20089;-64
2023/11/03 04:25:17;;;;;;;4.60;1.13;;;10.70;99.90;;;;;;4126275;28;20034;-65
2023/11/03 04:27:18;;;;;;;4.28;1.17;;;10.70;99.90;;;;;;4126939;28;20062;-64
2023/11/03 04:29:19;;;;;;;4.78;1.00;;;10.70;99.90;;;;;;4126523;28;20037;-64
2023/11/03 04:31:21;;;;;;;5.57;1.17;;;10.80;99.90;;;;;;4125368;28;20084;-66
2023/11/03 04:33:22;;;;;;;7.70;1.67;;;10.70;99.90;;;;;;4127595;28;20045;-64
2023/11/03 04:35:23;;;;;;;5.32;1.48;;;10.70;99.90;;;;;;4125708;28;20073;-64
2023/11/03 04:37:23;;;;;;;5.95;1.50;;;10.70;99.90;;;;;;4126845;28;20031;-64
2023/11/03 04:39:27;;;;;;;6.75;1.80;;;10.70;99.90;;;;;;4126540;28;20030;-64
2023/11/03 04:41:28;;;;;;;5.47;1.60;;;10.70;99.90;;;;;;4126056;28;20031;-64
2023/11/03 04:43:29;;;;;;;8.07;2.10;;;10.70;99.90;;;;;;4128040;28;20038;-64
2023/11/03 04:45:29;;;;;;;5.78;1.55;;;10.70;99.90;;;;;;4126515;28;20043;-66
2023/11/03 04:47:30;;;;;;;8.43;1.67;;;10.70;99.90;;;;;;4127601;28;20042;-67
2023/11/03 04:49:32;;;;;;;3.97;1.40;;;10.70;99.90;;;;;;4126794;28;20030;-66
2023/11/03 04:51:32;;;;;;;5.80;1.48;;;10.70;99.90;;;;;;4125867;28;20034;-66
2023/11/03 04:53:33;;;;;;;8.95;1.50;;;10.70;99.90;;;;;;4126519;28;20044;-67
2023/11/03 04:55:33;;;;;;;7.65;1.52;;;10.70;99.90;;;;;;4125930;28;20045;-67
2023/11/03 04:57:35;;;;;;;5.65;1.13;;;10.70;99.90;;;;;;4127193;28;20042;-67
2023/11/03 04:59:36;;;;;;;8.25;1.58;;;10.70;99.90;;;;;;4120855;28;20115;-66
2023/11/03 05:01:37;;;;;;;8.52;1.52;;;10.70;99.90;;;;;;4125059;28;20042;-68
2023/11/03 05:03:37;;;;;;;6.72;1.70;;;10.60;99.90;;;;;;4126430;28;20046;-66
2023/11/03 05:05:38;;;;;;;6.93;1.38;;;10.70;99.90;;;;;;4126619;28;20454;-67
2023/11/03 05:07:39;;;;;;;7.18;1.73;;;10.70;99.90;;;;;;4125467;28;20058;-67
2023/11/03 05:09:41;;;;;;;3.88;1.20;;;10.70;99.90;;;;;;4124600;28;20117;-66
2023/11/03 05:11:42;;;;;;;4.63;1.20;;;10.70;99.90;;;;;;4126939;28;20038;-69
2023/11/03 05:13:44;;;;;;;7.70;1.92;;;10.60;99.90;;;;;;4122760;28;20050;-67
2023/11/03 05:15:45;;;;;;;6.28;1.42;;;10.60;99.90;;;;;;4106881;28;20069;-67
2023/11/03 05:17:47;;;;;;;8.10;1.40;;;10.70;99.90;;;;;;4125385;28;20034;-67
2023/11/03 05:19:48;;;;;;;7.55;1.27;;;10.60;99.90;;;;;;4125571;28;20498;-67
2023/11/03 05:21:49;;;;;;;10.30;1.90;;;10.70;99.90;;;;;;4121926;28;20502;-66
2023/11/03 05:23:50;;;;;;;7.45;1.75;;;10.70;99.90;;;;;;4092867;28;20035;-67
2023/11/03 05:25:51;;;;;;;4.60;1.05;;;10.60;99.90;;;;;;4125810;28;20045;-67
2023/11/03 05:27:53;;;;;;;7.75;1.70;;;10.60;99.90;;;;;;4126436;28;20038;-66
2023/11/03 05:29:53;;;;;;;6.57;1.80;;;10.60;99.90;;;;;;4120029;28;20050;-67
2023/11/03 05:31:54;;;;;;;6.28;1.85;;;10.60;99.90;;;;;;4137941;28;20041;-67
2023/11/03 05:33:56;;;;;;;4.00;1.42;;;10.70;99.90;;;;;;4143054;28;20037;-67
2023/11/03 05:35:57;;;;;;;4.57;1.50;;;10.60;99.90;;;;;;4144495;28;20049;-66
2023/11/03 05:37:59;;;;;;;7.18;1.52;;;10.60;99.90;;;;;;4144655;28;20427;-67
2023/11/03 05:40:03;;;;;;;7.18;1.40;;;10.60;99.90;;;;;;4142910;28;20424;-67
2023/11/03 05:42:07;;;;;;;6.55;1.63;;;10.60;99.90;;;;;;4143441;28;20542;-67
2023/11/03 05:44:07;;;;;;;5.70;1.27;;;10.60;99.90;;;;;;4142011;28;20512;-67
2023/11/03 05:46:08;;;;;;;13.98;1.58;;;10.60;99.90;;;;;;4140915;28;20069;-67
2023/11/03 05:48:08;;;;;;;8.07;1.70;;;10.60;99.90;;;;;;4145930;28;20040;-67
2023/11/03 05:50:11;;;;;;;8.82;1.88;;;10.60;99.90;;;;;;4141348;28;20080;-67
2023/11/03 05:52:12;;;;;;;5.50;1.50;;;10.60;99.90;;;;;;4142418;28;20096;-67
2023/11/03 05:54:13;;;;;;;6.65;1.45;;;10.60;99.90;;;;;;4139698;28;20038;-67
2023/11/03 05:56:14;;;;;;;7.57;1.67;;;10.60;99.90;;;;;;4141908;28;20410;-65
2023/11/03 05:58:14;;;;;;;3.92;1.20;;;10.60;99.90;;;;;;4145908;28;20462;-64
2023/11/03 06:00:15;;;;;;;3.65;1.17;;;10.60;99.90;;;;;;4140950;28;20141;-64
2023/11/03 06:02:16;;;;;;;7.00;2.20;;;10.60;99.90;;;;;;4142384;28;20050;-65
2023/11/03 06:04:16;;;;;;;3.63;1.17;;;10.60;99.90;;;;;;4142652;28;20095;-64
2023/11/03 06:06:18;;;;;;;6.85;1.40;;;10.60;99.90;;;;;;4141568;28;20034;-64
2023/11/03 06:08:18;;;;;;;3.28;1.30;;;10.60;99.90;;;;;;4139536;28;20040;-64
2023/11/03 06:10:19;;;;;;;5.10;1.40;;;10.60;99.90;;;;;;4145705;28;20124;-65
2023/11/03 06:12:19;;;;;;;5.30;1.45;;;10.60;99.90;;;;;;4144939;28;20038;-66
2023/11/03 06:14:20;;;;;;;6.43;1.60;;;10.60;99.90;;;;;;4140595;28;20117;-65
2023/11/03 06:16:21;;;;;;;5.68;1.65;;;10.50;99.90;;;;;;4139121;28;20038;-65
2023/11/03 06:18:21;;;;;;;6.93;2.08;;;10.50;99.90;;;;;;4142424;28;20034;-65
2023/11/03 06:20:22;;;;;;;5.85;1.52;;;10.50;99.90;;;;;;4141517;28;20061;-65
2023/11/03 06:22:23;;;;;;;5.55;1.15;;;10.50;99.90;;;;;;4138982;28;20046;-66
2023/11/03 06:24:23;;;;;;;8.15;1.88;;;10.50;99.90;;;;;;4141254;28;20076;-67
2023/11/03 06:26:24;;;;;;;8.15;1.50;;;10.50;99.90;;;;;;4138723;28;20038;-67
2023/11/03 06:28:24;;;;;;;6.78;1.48;;;10.50;99.90;;;;;;4148983;28;20045;-67
2023/11/03 06:30:25;;;;;;;5.60;1.17;;;10.50;99.90;;;;;;4127982;28;20990;-66
2023/11/03 06:32:26;;;;;;;7.95;1.75;;;10.50;99.90;;;;;;4127347;28;20054;-66
2023/11/03 06:34:27;;;;;;;5.10;1.10;;;10.50;99.90;;;;;;4128799;28;20048;-65
2023/11/03 06:36:27;;;;;;;7.63;1.60;;;10.60;99.90;;;;;;4130247;28;20030;-66
2023/11/03 06:38:29;;;;;;;7.53;1.70;;;10.60;99.90;;;;;;4125112;28;20042;-66
2023/11/03 06:40:30;;;;;;;3.78;1.38;;;10.50;99.90;;;;;;4122563;28;20053;-66
2023/11/03 06:42:31;;;;;;;5.50;1.48;;;10.50;99.90;;;;;;4109130;28;20507;-66
2023/11/03 06:44:32;;;;;;;2.92;1.13;;;10.60;99.90;;;;;;4126886;28;20052;-66
2023/11/03 06:46:33;;;;;;;3.87;1.30;;;10.60;99.90;;;;;;4127711;28;20034;-66
2023/11/03 06:48:34;;;;;;;7.90;1.77;;;10.60;99.90;;;;;;4124809;28;20491;-66
2023/11/03 06:50:34;;;;;;;2.90;1.33;;;10.60;99.90;;;;;;4125477;28;20475;-67
2023/11/03 06:52:36;;;;;;;7.68;1.35;;;10.60;99.90;;;;;;4128814;28;20553;-66
2023/11/03 06:54:36;;;;;;;3.67;1.13;;;10.60;99.90;;;;;;4127821;28;20045;-66
2023/11/03 06:56:37;;;;;;;6.32;1.08;;;10.60;99.90;;;;;;4127028;28;20494;-66
2023/11/03 06:58:37;;;;;;;3.10;1.42;;;10.60;99.90;;;;;;4128223;28;20041;-66
2023/11/03 07:00:41;;;;;;;6.88;1.85;;;10.60;99.90;;;;;;4127078;28;20058;-66
2023/11/03 07:02:42;;;;;;;8.32;1.23;;;10.70;99.90;;;;;;4128256;28;20404;-66
2023/11/03 07:04:44;;;;;;;5.20;1.17;;;10.60;99.90;;;;;;4129346;28;20065;-66
2023/11/03 07:06:45;;;;;;;4.70;1.20;;;10.60;99.90;;;;;;4128488;28;20577;-68
2023/11/03 07:08:45;;;;;;;8.25;1.55;;;10.70;99.90;;;;;;4128400;28;20057;-68
2023/11/03 07:10:46;;;;;;;5.13;1.42;;;10.60;99.90;;;;;;4127720;28;20049;-69
2023/11/03 07:12:47;;;;;;;3.85;1.50;;;10.60;99.90;;;;;;4128791;28;25742;-69
2023/11/03 07:14:48;;;;;;;6.32;1.40;;;10.60;99.90;;;;;;4111982;28;20043;-68
2023/11/03 07:16:51;;;;;;;3.88;0.95;;;10.60;99.90;;;;;;4126093;28;20406;-69
2023/11/03 07:18:51;;;;;;;4.88;1.35;;;10.60;99.90;;;;;;4110837;28;20045;-71
2023/11/03 07:20:53;;;;;;;6.78;1.70;;;10.60;99.90;;;;;;4101286;28;20039;-69
2023/11/03 07:22:54;;;;;;;2.40;0.90;;;10.60;99.90;;;;;;4125876;28;20046;-69
2023/11/03 07:24:54;;;;;;;7.28;1.42;;;10.60;99.90;;;;;;4125697;28;20031;-69
2023/11/03 07:26:55;;;;;;;5.88;1.33;;;10.60;99.90;;;;;;4124748;28;20038;-68
2023/11/03 07:28:55;;;;;;;4.45;1.20;;;10.60;99.90;;;;;;4123570;28;20035;-69
2023/11/03 07:30:57;;;;;;;4.38;1.25;;;10.60;99.90;;;;;;4129521;28;20565;-68
2023/11/03 07:32:57;;;;;;;4.32;1.65;;;10.50;99.90;;;;;;4130509;28;20042;-69
2023/11/03 07:34:59;;;;;;;3.90;1.40;;;10.50;99.90;;;;;;4132349;28;20121;-69
2023/11/03 07:37:00;;;;;;;5.35;1.40;;;10.60;99.90;;;;;;4131374;28;20065;-69
2023/11/03 07:39:05;;;;;;;5.43;1.70;;;10.50;99.90;;;;;;4134967;28;20057;-69
2023/11/03 07:41:08;;;;;;;8.48;1.60;;;10.50;99.90;;;;;;4131713;28;20441;-69
2023/11/03 07:43:09;;;;;;;4.45;1.25;;;10.60;99.90;;;;;;4130691;28;20049;-69
2023/11/03 07:45:11;;;;;;;4.90;1.38;;;10.50;99.90;;;;;;4099110;28;20047;-69
2023/11/03 07:47:12;;;;;;;3.92;1.30;;;10.60;99.90;;;;;;4132918;28;21145;-68
2023/11/03 07:49:13;;;;;;;4.90;1.30;;;10.60;99.90;;;;;;4114302;28;20128;-68
2023/11/03 07:51:14;;;;;;;6.18;1.10;;;10.70;99.90;;;;;;4133471;28;20609;-69
2023/11/03 07:53:15;;;;;;;4.05;0.98;;;10.80;99.90;;;;;;4133618;28;20065;-69
2023/11/03 07:55:16;;;;;;;4.18;1.27;;;10.90;99.90;;;;;;4127731;28;20034;-68
2023/11/03 07:57:17;;;;;;;4.25;1.52;;;11.00;99.90;;;;;;4130632;28;20498;-68
2023/11/03 07:59:18;;;;;;;5.18;1.30;;;11.20;99.90;;;;;;4131034;28;20065;-69
2023/11/03 08:01:19;;;;;;;7.78;1.60;;;11.40;99.90;;;;;;4129316;28;20467;-68
2023/11/03 08:03:20;;;;;;;6.45;1.30;;;11.60;99.90;;;;;;4120451;28;20105;-68
2023/11/03 08:05:24;;;;;;;4.68;1.23;;;11.90;99.90;;;;;;4127886;28;20030;-68
2023/11/03 08:07:24;;;;;;;6.07;1.30;;;12.10;99.90;;;;;;4113145;28;20035;-69
2023/11/03 08:09:28;;;;;;;4.22;1.38;;;12.40;99.90;;;;;;4123692;28;20053;-68
2023/11/03 08:11:28;;;;;;;5.18;1.38;;;12.70;99.90;;;;;;4127646;28;20394;-69
2023/11/03 08:13:29;;;;;;;8.85;1.50;;;12.90;99.90;;;;;;4130690;28;20031;-69
2023/11/03 08:15:30;;;;;;;3.28;1.02;;;13.20;99.90;;;;;;4128382;28;20038;-77
2023/11/03 08:17:30;;;;;;;4.57;1.65;;;13.50;99.90;;;;;;4131145;28;21237;-69
2023/11/03 08:19:31;;;;;;;5.28;1.23;;;13.70;99.90;;;;;;4133391;28;20034;-69
2023/11/03 08:21:42;;;;;;;7.55;1.27;;;13.80;99.90;;;;;;4128937;28;20042;-69
2023/11/03 08:23:42;;;;;;;7.97;1.70;;;14.10;99.90;;;;;;4130174;28;20509;-68
2023/11/03 08:25:43;;;;;;;1.90;0.88;;;14.10;99.90;;;;;;4128880;28;20042;-68
2023/11/03 08:27:44;;;;;;;3.38;1.48;;;14.30;99.90;;;;;;4130889;28;20045;-68
2023/11/03 08:29:45;;;;;;;4.03;1.10;;;14.30;99.90;;;;;;4134310;28;20064;-69
2023/11/03 08:31:45;;;;;;;3.30;1.52;;;14.40;99.90;;;;;;4138890;28;20614;-68
2023/11/03 08:33:46;;;;;;;6.55;1.65;;;14.50;99.90;;;;;;4141494;28;20025;-68
2023/11/03 08:35:50;;;;;;;6.82;1.63;;;14.40;99.90;;;;;;4140690;28;20371;-68
2023/11/03 08:37:55;;;;;;;3.05;1.23;;;14.40;99.90;;;;;;4155935;28;20045;-69
2023/11/03 08:39:56;;;;;;;4.32;1.23;;;14.50;99.90;;;;;;4138310;28;20658;-69
2023/11/03 08:41:59;;;;;;;5.32;1.27;;;14.20;99.90;;;;;;4140210;28;20129;-69
2023/11/03 08:44:00;;;;;;;2.35;0.95;;;14.20;99.90;;;;;;4140289;28;20045;-69
2023/11/03 08:46:00;;;;;;;3.20;1.30;;;14.20;99.90;;;;;;4140132;28;20583;-69
2023/11/03 08:48:01;;;;;;;4.50;1.23;;;14.10;99.90;;;;;;4141761;28;20037;-69
2023/11/03 08:50:02;;;;;;;5.50;1.40;;;14.10;99.90;;;;;;4141695;28;20038;-69
2023/11/03 08:52:03;;;;;;;4.75;1.42;;;14.20;99.90;;;;;;4140868;28;20061;-69
2023/11/03 08:54:05;;;;;;;5.20;1.35;;;14.20;99.90;;;;;;4141578;28;20041;-69
2023/11/03 08:56:06;;;;;;;4.30;1.30;;;14.20;99.90;;;;;;4155113;28;20887;-69
2023/11/03 08:58:08;;;;;;;6.28;2.00;;;14.20;99.90;;;;;;4141347;28;20330;-69
2023/11/03 09:00:11;;;;;;;7.93;1.70;;;14.00;99.90;;;;;;4138443;28;20085;-71
2023/11/03 09:02:13;;;;;;;4.90;1.52;;;13.90;99.90;;;;;;4141690;28;20030;-69
2023/11/03 09:04:14;;;;;;;9.85;1.88;;;13.90;99.90;;;;;;4156920;28;20148;-69
2023/11/03 09:06:15;;;;;;;5.75;1.42;;;13.90;99.90;;;;;;4140546;28;20033;-69
2023/11/03 09:08:16;;;;;;;6.38;1.85;;;13.80;99.90;;;;;;4141364;28;20092;-68
2023/11/03 09:10:16;;;;;;;6.40;2.00;;;13.80;99.90;;;;;;4139378;28;20030;-69
2023/11/03 09:12:17;;;;;;;5.18;1.70;;;13.80;99.90;;;;;;4141629;28;20143;-69
2023/11/03 09:14:17;;;;;;;8.38;1.90;;;13.80;99.90;;;;;;4140765;28;20423;-69
2023/11/03 09:16:22;;;;;;;5.63;1.63;;;13.60;99.90;;;;;;4138876;28;20029;-69
2023/11/03 09:18:24;;;;;;;4.43;1.52;;;13.50;99.90;;;;;;4139479;28;20034;-69
2023/11/03 09:20:25;;;;;;;5.65;1.88;;;13.40;99.90;;;;;;4155344;28;21219;-69
2023/11/03 09:22:30;;;;;;;7.78;1.90;;;13.30;99.90;;;;;;4141596;28;20038;-69
2023/11/03 09:24:31;;;;;;;8.25;1.83;;;13.30;99.90;;;;;;4138856;28;20038;-69
2023/11/03 09:26:32;;;;;;;5.63;1.52;;;13.10;99.90;;;;;;4140826;28;20034;-75
2023/11/03 09:28:34;;;;;;;8.32;1.73;;;13.10;99.90;;;;;;4139327;28;20085;-76
2023/11/03 09:30:34;;;;;;;4.75;1.48;;;13.00;99.90;;;;;;4133267;28;20121;-76
2023/11/03 09:32:35;;;;;;;6.25;1.77;;;13.00;99.90;;;;;;4136774;28;20074;-76
2023/11/03 09:34:36;;;;;;;7.35;1.70;;;12.80;99.90;;;;;;4130396;28;20490;-76
2023/11/03 09:36:38;;;;;;;4.85;1.48;;;12.80;99.90;;;;;;4133392;28;20038;-72
2023/11/03 09:38:38;;;;;;;4.07;1.40;;;12.80;99.90;;;;;;4128203;28;20037;-72
2023/11/03 09:40:39;;;;;;;6.38;1.60;;;12.80;99.90;;;;;;4134636;28;20038;-72
2023/11/03 09:42:40;;;;;;;8.48;1.67;;;12.60;99.90;;;;;;4128277;28;20042;-71
2023/11/03 09:44:40;;;;;;;5.90;1.73;;;12.60;99.90;;;;;;4130390;28;20849;-72
2023/11/03 09:46:41;;;;;;;6.18;1.70;;;12.60;99.90;;;;;;4125761;28;20050;-72
2023/11/03 09:48:43;;;;;;;8.10;1.95;;;12.60;99.90;;;;;;4111529;28;20160;-72
2023/11/03 09:50:45;;;;;;;10.32;1.70;;;12.70;99.90;;;;;;4130833;28;20446;-71
2023/11/03 09:52:49;;;;;;;7.50;1.73;;;12.70;99.90;;;;;;4130944;28;20049;-71
2023/11/03 09:54:54;;;;;;;4.65;1.60;;;12.80;99.90;;;;;;4130089;28;20026;-72
2023/11/03 09:56:55;;;;;;;7.68;1.60;;;12.80;99.90;;;;;;4111224;28;20051;-71
2023/11/03 09:58:57;;;;;;;7.82;2.20;;;12.90;99.90;;;;;;4133455;28;20099;-71
2023/11/03 10:01:00;;;;;;;7.15;2.28;;;13.00;99.90;;;;;;4127203;28;20581;-71
2023/11/03 10:03:01;;;;;;;8.63;1.52;;;12.90;99.90;;;;;;4130071;28;20537;-71
2023/11/03 10:05:07;;;;;;;9.32;2.13;;;13.10;99.90;;;;;;4132763;28;20084;-72
2023/11/03 10:07:10;;;;;;;11.30;2.03;;;13.00;99.90;;;;;;4130649;28;20122;-72
2023/11/03 10:09:16;;;;;;;7.10;1.40;;;13.10;99.90;;;;;;4128947;28;20046;-72
2023/11/03 10:11:16;;;;;;;6.35;1.65;;;13.20;99.90;;;;;;4129832;28;20084;-72
2023/11/03 10:13:20;;;;;;;7.03;1.83;;;13.20;99.90;;;;;;4126751;28;20046;-72
2023/11/03 10:15:21;;;;;;;7.03;2.03;;;13.20;99.90;;;;;;4124906;28;20390;-72
2023/11/03 10:17:21;;;;;;;9.60;2.17;;;13.20;99.90;;;;;;4129240;28;20065;-72
2023/11/03 10:19:22;;;;;;;6.78;1.77;;;13.20;99.90;;;;;;4129734;28;20034;-72
2023/11/03 10:21:23;;;;;;;6.57;1.60;;;13.10;99.90;;;;;;4111882;28;20042;-72
2023/11/03 10:23:25;;;;;;;6.35;1.75;;;13.20;99.90;;;;;;4131609;28;20112;-72
2023/11/03 10:25:27;;;;;;;7.03;1.52;;;13.10;99.90;;;;;;4123177;28;20038;-72
2023/11/03 10:27:27;;;;;;;6.90;1.80;;;13.10;99.90;;;;;;4127657;28;20030;-72
2023/11/03 10:29:28;;;;;;;7.03;1.85;;;13.10;99.90;;;;;;4129597;28;20062;-71
2023/11/03 10:31:29;;;;;;;14.30;2.15;;;13.00;99.90;;;;;;4138379;28;20030;-71